sensor_id;sensor_type;location;lat;lon;timestamp;pressure;altitude;pressure_sealevel;temperature;humidity
64211;BME280;50528;48.514;14.394;2022-08-05T00:00:54;93792.63;;;17.72;63.87
64211;BME280;50528;48.514;14.394;2022-08-05T00:02:19;93792.48;;;17.71;63.89
64211;BME280;50528;48.514;14.394;2022-08-05T00:03:22;93793.02;;;17.70;63.98
64211;BME280;50528;48.514;14.394;2022-08-05T00:04:26;93789.08;;;17.68;64.14
64211;BME280;50528;48.514;14.394;2022-08-05T00:05:36;93789.59;;;17.69;64.19
64211;BME280;50528;48.514;14.394;2022-08-05T00:07:00;93789.56;;;17.64;64.31
64211;BME280;50528;48.514;14.394;2022-08-05T00:08:24;93789.56;;;17.60;64.37
64211;BME280;50528;48.514;14.394;2022-08-05T00:09:37;93791.17;;;17.59;64.48
64211;BME280;50528;48.514;14.394;2022-08-05T00:10:45;93792.35;;;17.60;64.70
64211;BME280;50528;48.514;14.394;2022-08-05T00:11:50;93789.89;;;17.61;64.69
64211;BME280;50528;48.514;14.394;2022-08-05T00:13:01;93788.34;;;17.61;64.62
64211;BME280;50528;48.514;14.394;2022-08-05T00:14:23;93787.22;;;17.61;64.55
64211;BME280;50528;48.514;14.394;2022-08-05T00:15:36;93784.14;;;17.61;64.62
64211;BME280;50528;48.514;14.394;2022-08-05T00:17:00;93786.42;;;17.61;64.62
64211;BME280;50528;48.514;14.394;2022-08-05T00:18:21;93781.44;;;17.60;64.46
64211;BME280;50528;48.514;14.394;2022-08-05T00:19:24;93780.02;;;17.59;64.49
64211;BME280;50528;48.514;14.394;2022-08-05T00:20:47;93784.56;;;17.62;64.38
64211;BME280;50528;48.514;14.394;2022-08-05T00:21:50;93784.63;;;17.61;64.39
64211;BME280;50528;48.514;14.394;2022-08-05T00:22:55;93781.67;;;17.62;64.51
64211;BME280;50528;48.514;14.394;2022-08-05T00:24:04;93779.98;;;17.61;64.47
64211;BME280;50528;48.514;14.394;2022-08-05T00:25:12;93778.65;;;17.62;64.47
64211;BME280;50528;48.514;14.394;2022-08-05T00:26:17;93777.65;;;17.62;64.59
64211;BME280;50528;48.514;14.394;2022-08-05T00:27:21;93778.23;;;17.62;64.56
64211;BME280;50528;48.514;14.394;2022-08-05T00:28:38;93775.36;;;17.62;64.52
64211;BME280;50528;48.514;14.394;2022-08-05T00:29:41;93777.38;;;17.61;64.48
64211;BME280;50528;48.514;14.394;2022-08-05T00:30:44;93774.20;;;17.60;64.61
64211;BME280;50528;48.514;14.394;2022-08-05T00:31:54;93775.00;;;17.61;64.62
64211;BME280;50528;48.514;14.394;2022-08-05T00:33:16;93777.14;;;17.60;64.48
64211;BME280;50528;48.514;14.394;2022-08-05T00:34:40;93776.89;;;17.58;64.49
64211;BME280;50528;48.514;14.394;2022-08-05T00:36:04;93773.71;;;17.56;64.47
64211;BME280;50528;48.514;14.394;2022-08-05T00:37:27;93776.91;;;17.53;64.47
64211;BME280;50528;48.514;14.394;2022-08-05T00:38:50;93774.30;;;17.50;64.64
64211;BME280;50528;48.514;14.394;2022-08-05T00:39:54;93773.14;;;17.50;64.76
64211;BME280;50528;48.514;14.394;2022-08-05T00:41:00;93773.60;;;17.50;64.83
64211;BME280;50528;48.514;14.394;2022-08-05T00:42:07;93763.70;;;17.45;64.83
64211;BME280;50528;48.514;14.394;2022-08-05T00:43:11;93770.89;;;17.50;64.91
64211;BME280;50528;48.514;14.394;2022-08-05T00:44:17;93770.08;;;17.51;64.89
64211;BME280;50528;48.514;14.394;2022-08-05T00:45:25;93769.92;;;17.51;64.91
64211;BME280;50528;48.514;14.394;2022-08-05T00:46:45;93771.90;;;17.51;64.80
64211;BME280;50528;48.514;14.394;2022-08-05T00:47:55;93769.58;;;17.50;64.83
64211;BME280;50528;48.514;14.394;2022-08-05T00:49:07;93764.81;;;17.49;64.87
64211;BME280;50528;48.514;14.394;2022-08-05T00:50:15;93764.52;;;17.47;64.92
64211;BME280;50528;48.514;14.394;2022-08-05T00:51:22;93764.09;;;17.44;65.01
64211;BME280;50528;48.514;14.394;2022-08-05T00:52:46;93759.91;;;17.40;65.02
64211;BME280;50528;48.514;14.394;2022-08-05T00:53:49;93762.41;;;17.39;65.24
64211;BME280;50528;48.514;14.394;2022-08-05T00:55:05;93762.63;;;17.39;65.20
64211;BME280;50528;48.514;14.394;2022-08-05T00:56:08;93761.52;;;17.38;65.27
64211;BME280;50528;48.514;14.394;2022-08-05T00:57:13;93758.59;;;17.39;65.30
64211;BME280;50528;48.514;14.394;2022-08-05T00:58:23;93760.46;;;17.38;65.38
64211;BME280;50528;48.514;14.394;2022-08-05T00:59:29;93756.73;;;17.38;65.43
64211;BME280;50528;48.514;14.394;2022-08-05T01:00:46;93754.17;;;17.39;65.32
64211;BME280;50528;48.514;14.394;2022-08-05T01:01:52;93752.90;;;17.39;65.33
64211;BME280;50528;48.514;14.394;2022-08-05T01:02:57;93751.77;;;17.40;65.22
64211;BME280;50528;48.514;14.394;2022-08-05T01:04:02;93752.29;;;17.41;65.22
64211;BME280;50528;48.514;14.394;2022-08-05T01:05:15;93750.58;;;17.42;65.22
64211;BME280;50528;48.514;14.394;2022-08-05T01:06:18;93748.95;;;17.40;65.22
64211;BME280;50528;48.514;14.394;2022-08-05T01:07:33;93751.81;;;17.41;65.21
64211;BME280;50528;48.514;14.394;2022-08-05T01:08:37;93745.84;;;17.39;65.38
64211;BME280;50528;48.514;14.394;2022-08-05T01:09:46;93749.38;;;17.37;65.36
64211;BME280;50528;48.514;14.394;2022-08-05T01:11:07;93747.14;;;17.35;65.55
64211;BME280;50528;48.514;14.394;2022-08-05T01:12:16;93742.54;;;17.30;65.64
64211;BME280;50528;48.514;14.394;2022-08-05T01:13:32;93730.35;;;17.22;65.72
64211;BME280;50528;48.514;14.394;2022-08-05T01:15:03;93740.38;;;17.28;65.71
64211;BME280;50528;48.514;14.394;2022-08-05T01:16:41;93740.89;;;17.27;65.54
64211;BME280;50528;48.514;14.394;2022-08-05T01:18:02;93742.45;;;17.25;65.50
64211;BME280;50528;48.514;14.394;2022-08-05T01:26:11;93739.86;;;17.07;65.95
64211;BME280;50528;48.514;14.394;2022-08-05T01:27:42;93740.84;;;17.05;65.88
64211;BME280;50528;48.514;14.394;2022-08-05T01:29:00;93741.06;;;17.04;66.00
64211;BME280;50528;48.514;14.394;2022-08-05T01:30:07;93738.35;;;17.05;66.14
64211;BME280;50528;48.514;14.394;2022-08-05T01:31:41;93737.02;;;17.05;66.09
64211;BME280;50528;48.514;14.394;2022-08-05T01:32:48;93739.46;;;17.05;65.99
64211;BME280;50528;48.514;14.394;2022-08-05T01:35:11;93739.17;;;17.07;65.95
64211;BME280;50528;48.514;14.394;2022-08-05T01:36:45;93740.96;;;17.05;65.95
64211;BME280;50528;48.514;14.394;2022-08-05T01:37:53;93742.84;;;17.03;66.09
64211;BME280;50528;48.514;14.394;2022-08-05T01:38:58;93737.23;;;17.02;66.12
64211;BME280;50528;48.514;14.394;2022-08-05T01:40:04;93735.92;;;17.00;66.11
64211;BME280;50528;48.514;14.394;2022-08-05T01:41:10;93739.12;;;17.01;66.24
64211;BME280;50528;48.514;14.394;2022-08-05T01:42:18;93741.34;;;17.01;66.27
64211;BME280;50528;48.514;14.394;2022-08-05T01:43:23;93740.43;;;17.01;66.40
64211;BME280;50528;48.514;14.394;2022-08-05T01:44:29;93742.06;;;17.02;66.35
64211;BME280;50528;48.514;14.394;2022-08-05T01:45:37;93737.24;;;17.00;66.28
64211;BME280;50528;48.514;14.394;2022-08-05T01:46:45;93739.88;;;17.02;66.14
64211;BME280;50528;48.514;14.394;2022-08-05T01:47:50;93736.14;;;17.03;66.17
64211;BME280;50528;48.514;14.394;2022-08-05T01:48:57;93737.21;;;17.03;65.93
64211;BME280;50528;48.514;14.394;2022-08-05T01:50:28;93735.86;;;17.01;65.72
64211;BME280;50528;48.514;14.394;2022-08-05T01:51:34;93736.64;;;16.99;65.64
64211;BME280;50528;48.514;14.394;2022-08-05T01:52:40;93735.56;;;16.96;65.74
64211;BME280;50528;48.514;14.394;2022-08-05T01:53:47;93736.08;;;16.94;65.62
64211;BME280;50528;48.514;14.394;2022-08-05T01:55:04;93730.92;;;16.91;65.61
64211;BME280;50528;48.514;14.394;2022-08-05T01:56:12;93730.16;;;16.88;65.56
64211;BME280;50528;48.514;14.394;2022-08-05T01:57:42;93731.86;;;16.89;65.60
64211;BME280;50528;48.514;14.394;2022-08-05T01:59:10;93731.38;;;16.86;65.65
64211;BME280;50528;48.514;14.394;2022-08-05T02:00:18;93728.56;;;16.84;65.69
64211;BME280;50528;48.514;14.394;2022-08-05T02:01:33;93735.21;;;16.84;65.98
64211;BME280;50528;48.514;14.394;2022-08-05T02:02:46;93732.35;;;16.84;65.82
64211;BME280;50528;48.514;14.394;2022-08-05T02:03:57;93731.90;;;16.83;66.04
64211;BME280;50528;48.514;14.394;2022-08-05T02:05:05;93724.29;;;16.80;66.11
64211;BME280;50528;48.514;14.394;2022-08-05T02:06:14;93729.63;;;16.82;66.02
64211;BME280;50528;48.514;14.394;2022-08-05T02:07:38;93731.77;;;16.80;66.15
64211;BME280;50528;48.514;14.394;2022-08-05T02:08:41;93729.83;;;16.78;66.30
64211;BME280;50528;48.514;14.394;2022-08-05T02:10:01;93731.16;;;16.78;66.38
64211;BME280;50528;48.514;14.394;2022-08-05T02:11:07;93728.25;;;16.77;66.33
64211;BME280;50528;48.514;14.394;2022-08-05T02:13:07;93720.27;;;16.75;66.24
64211;BME280;50528;48.514;14.394;2022-08-05T02:15:25;93725.69;;;16.74;66.44
64211;BME280;50528;48.514;14.394;2022-08-05T02:16:46;93726.28;;;16.70;66.40
64211;BME280;50528;48.514;14.394;2022-08-05T02:18:02;93727.30;;;16.69;66.45
64211;BME280;50528;48.514;14.394;2022-08-05T02:20:35;93724.73;;;16.67;66.59
64211;BME280;50528;48.514;14.394;2022-08-05T02:21:51;93723.70;;;16.68;66.53
64211;BME280;50528;48.514;14.394;2022-08-05T02:22:58;93721.95;;;16.68;66.55
64211;BME280;50528;48.514;14.394;2022-08-05T02:24:07;93723.98;;;16.67;66.64
64211;BME280;50528;48.514;14.394;2022-08-05T02:25:17;93720.97;;;16.66;66.76
64211;BME280;50528;48.514;14.394;2022-08-05T02:26:50;93722.08;;;16.67;66.72
64211;BME280;50528;48.514;14.394;2022-08-05T02:27:57;93721.95;;;16.65;66.80
64211;BME280;50528;48.514;14.394;2022-08-05T02:29:03;93720.90;;;16.64;67.05
64211;BME280;50528;48.514;14.394;2022-08-05T02:30:25;93719.30;;;16.64;67.06
64211;BME280;50528;48.514;14.394;2022-08-05T02:31:34;93724.40;;;16.64;66.96
64211;BME280;50528;48.514;14.394;2022-08-05T02:32:39;93722.12;;;16.64;67.03
64211;BME280;50528;48.514;14.394;2022-08-05T02:33:50;93724.83;;;16.64;67.15
64211;BME280;50528;48.514;14.394;2022-08-05T02:35:03;93722.48;;;16.64;67.33
64211;BME280;50528;48.514;14.394;2022-08-05T02:36:18;93722.59;;;16.64;67.21
64211;BME280;50528;48.514;14.394;2022-08-05T02:37:30;93725.09;;;16.64;67.22
64211;BME280;50528;48.514;14.394;2022-08-05T02:38:36;93721.95;;;16.65;67.20
64211;BME280;50528;48.514;14.394;2022-08-05T02:39:40;93724.00;;;16.66;67.10
64211;BME280;50528;48.514;14.394;2022-08-05T02:40:50;93721.40;;;16.66;67.13
64211;BME280;50528;48.514;14.394;2022-08-05T02:41:59;93720.61;;;16.66;67.06
64211;BME280;50528;48.514;14.394;2022-08-05T02:43:05;93722.76;;;16.64;67.10
64211;BME280;50528;48.514;14.394;2022-08-05T02:44:10;93723.38;;;16.66;67.11
64211;BME280;50528;48.514;14.394;2022-08-05T02:45:16;93719.71;;;16.65;67.18
64211;BME280;50528;48.514;14.394;2022-08-05T02:46:27;93722.36;;;16.66;67.13
64211;BME280;50528;48.514;14.394;2022-08-05T02:47:34;93718.51;;;16.65;67.01
64211;BME280;50528;48.514;14.394;2022-08-05T02:48:58;93717.68;;;16.62;67.09
64211;BME280;50528;48.514;14.394;2022-08-05T02:50:03;93718.67;;;16.63;67.16
64211;BME280;50528;48.514;14.394;2022-08-05T02:51:09;93716.30;;;16.63;67.11
64211;BME280;50528;48.514;14.394;2022-08-05T02:52:18;93718.89;;;16.62;67.23
64211;BME280;50528;48.514;14.394;2022-08-05T02:53:32;93720.30;;;16.61;67.23
64211;BME280;50528;48.514;14.394;2022-08-05T02:54:42;93719.70;;;16.59;67.35
64211;BME280;50528;48.514;14.394;2022-08-05T02:55:57;93715.97;;;16.58;67.45
64211;BME280;50528;48.514;14.394;2022-08-05T02:57:09;93712.43;;;16.57;67.32
64211;BME280;50528;48.514;14.394;2022-08-05T02:58:35;93715.00;;;16.60;67.43
64211;BME280;50528;48.514;14.394;2022-08-05T02:59:46;93713.31;;;16.59;67.47
64211;BME280;50528;48.514;14.394;2022-08-05T03:01:08;93715.02;;;16.59;67.60
64211;BME280;50528;48.514;14.394;2022-08-05T03:02:19;93718.78;;;16.59;67.52
64211;BME280;50528;48.514;14.394;2022-08-05T03:03:23;93713.38;;;16.59;67.56
64211;BME280;50528;48.514;14.394;2022-08-05T03:04:28;93713.54;;;16.59;67.51
64211;BME280;50528;48.514;14.394;2022-08-05T03:05:32;93713.84;;;16.57;67.50
64211;BME280;50528;48.514;14.394;2022-08-05T03:06:56;93712.52;;;16.54;67.47
64211;BME280;50528;48.514;14.394;2022-08-05T03:08:02;93712.13;;;16.51;67.37
64211;BME280;50528;48.514;14.394;2022-08-05T03:09:11;93710.45;;;16.50;67.55
64211;BME280;50528;48.514;14.394;2022-08-05T03:10:19;93712.30;;;16.49;67.54
64211;BME280;50528;48.514;14.394;2022-08-05T03:11:26;93710.82;;;16.50;67.58
64211;BME280;50528;48.514;14.394;2022-08-05T03:12:51;93710.67;;;16.49;67.62
64211;BME280;50528;48.514;14.394;2022-08-05T03:13:56;93713.25;;;16.47;67.77
64211;BME280;50528;48.514;14.394;2022-08-05T03:15:08;93709.42;;;16.48;67.77
64211;BME280;50528;48.514;14.394;2022-08-05T03:16:14;93705.17;;;16.49;67.74
64211;BME280;50528;48.514;14.394;2022-08-05T03:17:21;93707.13;;;16.49;67.56
64211;BME280;50528;48.514;14.394;2022-08-05T03:18:25;93704.50;;;16.47;67.27
64211;BME280;50528;48.514;14.394;2022-08-05T03:19:32;93708.73;;;16.48;67.15
64211;BME280;50528;48.514;14.394;2022-08-05T03:20:38;93702.77;;;16.44;67.12
64211;BME280;50528;48.514;14.394;2022-08-05T03:21:50;93709.13;;;16.42;67.00
64211;BME280;50528;48.514;14.394;2022-08-05T03:22:54;93705.74;;;16.41;67.01
64211;BME280;50528;48.514;14.394;2022-08-05T03:24:03;93703.63;;;16.41;67.09
64211;BME280;50528;48.514;14.394;2022-08-05T03:25:45;93701.73;;;16.39;67.17
64211;BME280;50528;48.514;14.394;2022-08-05T03:27:08;93701.94;;;16.39;67.44
64211;BME280;50528;48.514;14.394;2022-08-05T03:28:14;93699.65;;;16.40;67.27
64211;BME280;50528;48.514;14.394;2022-08-05T03:29:21;93699.09;;;16.38;67.07
64211;BME280;50528;48.514;14.394;2022-08-05T03:30:25;93697.92;;;16.35;66.99
64211;BME280;50528;48.514;14.394;2022-08-05T03:31:35;93699.80;;;16.32;66.86
64211;BME280;50528;48.514;14.394;2022-08-05T03:33:00;93697.38;;;16.27;66.61
64211;BME280;50528;48.514;14.394;2022-08-05T03:34:04;93694.46;;;16.23;66.74
64211;BME280;50528;48.514;14.394;2022-08-05T03:35:08;93700.98;;;16.23;66.76
64211;BME280;50528;48.514;14.394;2022-08-05T03:36:14;93697.39;;;16.22;66.79
64211;BME280;50528;48.514;14.394;2022-08-05T03:37:36;93695.81;;;16.17;66.88
64211;BME280;50528;48.514;14.394;2022-08-05T03:38:48;93697.36;;;16.12;67.15
64211;BME280;50528;48.514;14.394;2022-08-05T03:39:58;93697.30;;;16.14;67.23
64211;BME280;50528;48.514;14.394;2022-08-05T03:41:17;93697.96;;;16.15;67.38
64211;BME280;50528;48.514;14.394;2022-08-05T03:42:26;93699.54;;;16.16;67.53
64211;BME280;50528;48.514;14.394;2022-08-05T03:43:35;93702.23;;;16.16;67.66
64211;BME280;50528;48.514;14.394;2022-08-05T03:45:17;93706.29;;;16.15;67.41
64211;BME280;50528;48.514;14.394;2022-08-05T03:46:33;93706.09;;;16.14;67.35
64211;BME280;50528;48.514;14.394;2022-08-05T03:47:37;93704.17;;;16.15;67.31
64211;BME280;50528;48.514;14.394;2022-08-05T03:48:43;93704.52;;;16.16;67.35
64211;BME280;50528;48.514;14.394;2022-08-05T03:49:48;93704.02;;;16.17;67.29
64211;BME280;50528;48.514;14.394;2022-08-05T03:51:07;93701.85;;;16.19;67.52
64211;BME280;50528;48.514;14.394;2022-08-05T03:52:36;93700.05;;;16.18;67.51
64211;BME280;50528;48.514;14.394;2022-08-05T03:55:39;93704.45;;;16.18;67.42
64211;BME280;50528;48.514;14.394;2022-08-05T03:57:09;93706.91;;;16.16;67.33
64211;BME280;50528;48.514;14.394;2022-08-05T03:58:35;93704.73;;;16.15;67.17
64211;BME280;50528;48.514;14.394;2022-08-05T03:59:47;93704.47;;;16.16;67.36
64211;BME280;50528;48.514;14.394;2022-08-05T04:00:58;93705.68;;;16.17;67.50
64211;BME280;50528;48.514;14.394;2022-08-05T04:02:06;93704.13;;;16.19;67.59
64211;BME280;50528;48.514;14.394;2022-08-05T04:03:20;93699.63;;;16.21;67.71
64211;BME280;50528;48.514;14.394;2022-08-05T04:04:31;93699.09;;;16.22;67.60
64211;BME280;50528;48.514;14.394;2022-08-05T04:05:35;93701.24;;;16.23;67.66
64211;BME280;50528;48.514;14.394;2022-08-05T04:06:42;93700.88;;;16.24;67.56
64211;BME280;50528;48.514;14.394;2022-08-05T04:07:52;93702.73;;;16.23;67.50
64211;BME280;50528;48.514;14.394;2022-08-05T04:09:02;93704.27;;;16.19;67.38
64211;BME280;50528;48.514;14.394;2022-08-05T04:10:08;93706.70;;;16.20;67.47
64211;BME280;50528;48.514;14.394;2022-08-05T04:11:19;93706.50;;;16.19;67.46
64211;BME280;50528;48.514;14.394;2022-08-05T04:12:24;93709.55;;;16.17;67.59
64211;BME280;50528;48.514;14.394;2022-08-05T04:13:28;93708.80;;;16.17;67.67
64211;BME280;50528;48.514;14.394;2022-08-05T04:14:53;93710.52;;;16.17;67.74
64211;BME280;50528;48.514;14.394;2022-08-05T04:15:59;93700.30;;;16.13;67.91
64211;BME280;50528;48.514;14.394;2022-08-05T04:17:07;93705.92;;;16.18;68.07
64211;BME280;50528;48.514;14.394;2022-08-05T04:18:13;93707.70;;;16.20;68.17
64211;BME280;50528;48.514;14.394;2022-08-05T04:19:24;93704.88;;;16.21;68.09
64211;BME280;50528;48.514;14.394;2022-08-05T04:20:30;93708.58;;;16.23;68.11
64211;BME280;50528;48.514;14.394;2022-08-05T04:21:35;93702.20;;;16.24;68.11
64211;BME280;50528;48.514;14.394;2022-08-05T04:22:58;93703.88;;;16.25;68.15
64211;BME280;50528;48.514;14.394;2022-08-05T04:24:03;93702.40;;;16.25;68.07
64211;BME280;50528;48.514;14.394;2022-08-05T04:25:20;93700.05;;;16.25;67.97
64211;BME280;50528;48.514;14.394;2022-08-05T04:26:43;93704.03;;;16.25;68.08
64211;BME280;50528;48.514;14.394;2022-08-05T04:27:48;93702.27;;;16.26;68.18
64211;BME280;50528;48.514;14.394;2022-08-05T04:29:00;93703.85;;;16.27;68.23
64211;BME280;50528;48.514;14.394;2022-08-05T04:30:09;93704.02;;;16.26;68.22
64211;BME280;50528;48.514;14.394;2022-08-05T04:31:13;93702.70;;;16.26;68.29
64211;BME280;50528;48.514;14.394;2022-08-05T04:32:20;93699.40;;;16.27;68.22
64211;BME280;50528;48.514;14.394;2022-08-05T04:33:35;93697.23;;;16.26;68.26
64211;BME280;50528;48.514;14.394;2022-08-05T04:34:58;93698.14;;;16.25;68.33
64211;BME280;50528;48.514;14.394;2022-08-05T04:36:01;93700.48;;;16.26;68.29
64211;BME280;50528;48.514;14.394;2022-08-05T04:37:18;93696.40;;;16.25;68.40
64211;BME280;50528;48.514;14.394;2022-08-05T04:38:24;93699.67;;;16.26;68.58
64211;BME280;50528;48.514;14.394;2022-08-05T04:39:41;93698.27;;;16.27;68.58
64211;BME280;50528;48.514;14.394;2022-08-05T04:40:44;93699.97;;;16.28;68.59
64211;BME280;50528;48.514;14.394;2022-08-05T04:41:52;93702.66;;;16.29;68.82
64211;BME280;50528;48.514;14.394;2022-08-05T04:42:57;93703.13;;;16.30;68.88
64211;BME280;50528;48.514;14.394;2022-08-05T04:44:00;93704.61;;;16.31;69.00
64211;BME280;50528;48.514;14.394;2022-08-05T04:45:11;93707.11;;;16.33;69.10
64211;BME280;50528;48.514;14.394;2022-08-05T04:46:24;93706.20;;;16.25;68.98
64211;BME280;50528;48.514;14.394;2022-08-05T04:47:30;93705.02;;;16.28;69.36
64211;BME280;50528;48.514;14.394;2022-08-05T04:48:44;93712.73;;;16.34;69.14
64211;BME280;50528;48.514;14.394;2022-08-05T04:49:53;93711.17;;;16.36;69.38
64211;BME280;50528;48.514;14.394;2022-08-05T04:51:13;93710.31;;;16.39;69.17
64211;BME280;50528;48.514;14.394;2022-08-05T04:52:16;93712.42;;;16.41;69.33
64211;BME280;50528;48.514;14.394;2022-08-05T04:53:20;93708.70;;;16.45;69.53
64211;BME280;50528;48.514;14.394;2022-08-05T04:54:24;93710.44;;;16.47;69.56
64211;BME280;50528;48.514;14.394;2022-08-05T04:55:29;93710.15;;;16.49;69.48
64211;BME280;50528;48.514;14.394;2022-08-05T04:56:53;93708.71;;;16.50;69.70
64211;BME280;50528;48.514;14.394;2022-08-05T04:58:02;93708.72;;;16.53;69.73
64211;BME280;50528;48.514;14.394;2022-08-05T04:59:14;93711.46;;;16.57;69.93
64211;BME280;50528;48.514;14.394;2022-08-05T05:00:38;93710.45;;;16.59;69.99
64211;BME280;50528;48.514;14.394;2022-08-05T05:01:52;93714.39;;;16.63;70.19
64211;BME280;50528;48.514;14.394;2022-08-05T05:03:16;93714.60;;;16.66;70.10
64211;BME280;50528;48.514;14.394;2022-08-05T05:04:22;93714.23;;;16.70;70.31
64211;BME280;50528;48.514;14.394;2022-08-05T05:05:26;93717.61;;;16.75;70.28
64211;BME280;50528;48.514;14.394;2022-08-05T05:06:31;93716.66;;;16.78;70.38
64211;BME280;50528;48.514;14.394;2022-08-05T05:07:46;93718.89;;;16.83;70.58
64211;BME280;50528;48.514;14.394;2022-08-05T05:09:03;93719.30;;;16.87;70.50
64211;BME280;50528;48.514;14.394;2022-08-05T05:10:07;93718.52;;;16.90;70.77
64211;BME280;50528;48.514;14.394;2022-08-05T05:11:11;93719.26;;;16.94;70.70
64211;BME280;50528;48.514;14.394;2022-08-05T05:12:17;93722.77;;;16.96;70.76
64211;BME280;50528;48.514;14.394;2022-08-05T05:13:21;93718.14;;;16.97;70.99
64211;BME280;50528;48.514;14.394;2022-08-05T05:14:24;93721.02;;;17.03;71.01
64211;BME280;50528;48.514;14.394;2022-08-05T05:15:33;93720.81;;;17.07;71.11
64211;BME280;50528;48.514;14.394;2022-08-05T05:16:56;93717.88;;;17.10;71.32
64211;BME280;50528;48.514;14.394;2022-08-05T05:18:00;93723.54;;;17.13;71.30
64211;BME280;50528;48.514;14.394;2022-08-05T05:19:03;93725.48;;;17.16;71.49
64211;BME280;50528;48.514;14.394;2022-08-05T05:20:21;93725.91;;;17.19;71.39
64211;BME280;50528;48.514;14.394;2022-08-05T05:21:30;93726.02;;;17.23;71.38
64211;BME280;50528;48.514;14.394;2022-08-05T05:22:35;93723.98;;;17.27;71.40
64211;BME280;50528;48.514;14.394;2022-08-05T05:23:45;93724.73;;;17.31;71.65
64211;BME280;50528;48.514;14.394;2022-08-05T05:25:09;93724.14;;;17.34;71.59
64211;BME280;50528;48.514;14.394;2022-08-05T05:26:19;93725.11;;;17.37;71.78
64211;BME280;50528;48.514;14.394;2022-08-05T05:27:35;93722.96;;;17.41;71.95
64211;BME280;50528;48.514;14.394;2022-08-05T05:28:46;93720.96;;;17.45;71.75
64211;BME280;50528;48.514;14.394;2022-08-05T05:29:50;93725.61;;;17.50;71.95
64211;BME280;50528;48.514;14.394;2022-08-05T05:31:07;93724.51;;;17.53;72.25
64211;BME280;50528;48.514;14.394;2022-08-05T05:32:10;93724.74;;;17.57;72.05
64211;BME280;50528;48.514;14.394;2022-08-05T05:33:17;93724.05;;;17.62;72.18
64211;BME280;50528;48.514;14.394;2022-08-05T05:34:25;93726.02;;;17.66;72.10
64211;BME280;50528;48.514;14.394;2022-08-05T05:35:29;93723.02;;;17.69;72.11
64211;BME280;50528;48.514;14.394;2022-08-05T05:36:41;93726.17;;;17.74;72.16
64211;BME280;50528;48.514;14.394;2022-08-05T05:37:51;93722.45;;;17.79;72.10
64211;BME280;50528;48.514;14.394;2022-08-05T05:39:03;93719.85;;;17.84;72.44
64211;BME280;50528;48.514;14.394;2022-08-05T05:40:16;93720.44;;;17.89;72.13
64211;BME280;50528;48.514;14.394;2022-08-05T05:41:23;93717.11;;;17.93;72.40
64211;BME280;50528;48.514;14.394;2022-08-05T05:42:44;93718.65;;;17.98;72.14
64211;BME280;50528;48.514;14.394;2022-08-05T05:43:48;93717.38;;;18.04;71.93
64211;BME280;50528;48.514;14.394;2022-08-05T05:45:01;93722.20;;;18.10;71.92
64211;BME280;50528;48.514;14.394;2022-08-05T05:46:05;93720.86;;;18.14;71.86
64211;BME280;50528;48.514;14.394;2022-08-05T05:47:17;93718.95;;;18.20;71.88
64211;BME280;50528;48.514;14.394;2022-08-05T05:48:25;93718.28;;;18.24;71.83
64211;BME280;50528;48.514;14.394;2022-08-05T05:49:29;93720.39;;;18.29;71.76
64211;BME280;50528;48.514;14.394;2022-08-05T05:50:34;93715.93;;;18.34;71.84
64211;BME280;50528;48.514;14.394;2022-08-05T05:51:45;93721.68;;;18.39;71.82
64211;BME280;50528;48.514;14.394;2022-08-05T05:52:52;93724.50;;;18.45;71.62
64211;BME280;50528;48.514;14.394;2022-08-05T05:53:56;93722.61;;;18.49;71.55
64211;BME280;50528;48.514;14.394;2022-08-05T05:55:07;93720.70;;;18.53;71.70
64211;BME280;50528;48.514;14.394;2022-08-05T05:56:15;93723.13;;;18.58;71.59
64211;BME280;50528;48.514;14.394;2022-08-05T05:57:36;93721.38;;;18.62;71.35
64211;BME280;50528;48.514;14.394;2022-08-05T05:58:57;93720.36;;;18.68;71.06
64211;BME280;50528;48.514;14.394;2022-08-05T06:00:11;93716.99;;;18.71;71.06
64211;BME280;50528;48.514;14.394;2022-08-05T06:01:18;93719.70;;;18.76;70.98
64211;BME280;50528;48.514;14.394;2022-08-05T06:02:28;93714.12;;;18.80;70.84
64211;BME280;50528;48.514;14.394;2022-08-05T06:03:42;93713.84;;;18.85;70.77
64211;BME280;50528;48.514;14.394;2022-08-05T06:05:09;93708.73;;;18.88;70.99
64211;BME280;50528;48.514;14.394;2022-08-05T06:06:18;93711.55;;;18.95;71.18
64211;BME280;50528;48.514;14.394;2022-08-05T06:07:24;93714.14;;;19.01;71.04
64211;BME280;50528;48.514;14.394;2022-08-05T06:08:44;93713.50;;;19.06;71.07
64211;BME280;50528;48.514;14.394;2022-08-05T06:09:51;93719.13;;;19.13;71.07
64211;BME280;50528;48.514;14.394;2022-08-05T06:11:06;93719.42;;;19.19;71.09
64211;BME280;50528;48.514;14.394;2022-08-05T06:12:09;93714.63;;;19.23;70.98
64211;BME280;50528;48.514;14.394;2022-08-05T06:13:13;93717.63;;;19.29;70.92
64211;BME280;50528;48.514;14.394;2022-08-05T06:14:17;93719.89;;;19.34;70.74
64211;BME280;50528;48.514;14.394;2022-08-05T06:15:20;93717.30;;;19.40;70.73
64211;BME280;50528;48.514;14.394;2022-08-05T06:16:26;93717.27;;;19.43;70.98
64211;BME280;50528;48.514;14.394;2022-08-05T06:17:34;93719.75;;;19.49;71.03
64211;BME280;50528;48.514;14.394;2022-08-05T06:18:56;93719.67;;;19.53;71.37
64211;BME280;50528;48.514;14.394;2022-08-05T06:20:04;93719.54;;;19.58;71.38
64211;BME280;50528;48.514;14.394;2022-08-05T06:21:23;93717.60;;;19.64;71.42
64211;BME280;50528;48.514;14.394;2022-08-05T06:22:38;93723.40;;;19.70;72.08
64211;BME280;50528;48.514;14.394;2022-08-05T06:23:43;93723.88;;;19.77;72.47
64211;BME280;50528;48.514;14.394;2022-08-05T06:24:51;93721.40;;;19.84;72.28
64211;BME280;50528;48.514;14.394;2022-08-05T06:25:54;93725.27;;;19.89;72.06
64211;BME280;50528;48.514;14.394;2022-08-05T06:27:18;93721.98;;;19.95;72.14